American Spirit — WCX2417 — position and weather

sailwx.info

Track history (hours):
 
Tides and Currents Weather Stations Pressure Air Temp Water Temp Dewpoint Dewpoint Depression Visibility Wind Speed Wind Dir Waves Ship Positions

American Spirit

Owner: AMERICAN STEAMSHIP COMPANY, WILLIAMSVILLE, NY. More information available from US FCC via Universal Licensing System and Coast Guard Vessel Documentation Center.

Last reported at 2017-Sep-20 12:00 UTC. Time now 2017-Sep-21 15:48 UTC.
Position N 43°30' W 086°54'.

Length 302 m; draft 8.6 m.

Type: Cargo ship. MMSI: 366930730.

Wind from 130 at 16 knots

Barometer 1014.2 mb
Air temperature 17.2 ° C
Visibility: greater than 5.4 NM

Date/timePositionNaut miles runAvg speedWind from/ knotsBaromVisibWave heightAir tempDewpointWater temp
2017-Sep-20 12:00N 43°30' W 086°54'6212.5 130 / 161014.2 5.4 17.2
2017-Sep-20 07:00N 44°30' W 086°30'4110.2 150 / 201014.210.8 18.3
2017-Sep-20 02:58N 45°10' W 086°19'511.5
2017-Sep-20 02:30N 45°15' W 086°17'611.6
2017-Sep-20 02:00N 45°21' W 086°15'611.6
2017-Sep-20 01:30N 45°26' W 086°12'611.7
2017-Sep-20 01:00N 45°32' W 086°10'611.6
2017-Sep-20 00:30N 45°38' W 086°08'510.6
2017-Sep-20 00:00N 45°42' W 086°04'7447.0
2017-Sep-20 00:00N 45°42' W 085°54'3 6.9 080 / 101015.927.0 17.7
2017-Sep-19 23:30N 45°45' W 085°56'611.7
2017-Sep-19 23:00N 45°48' W 085°49'611.4
2017-Sep-19 22:30N 45°51' W 085°42'611.3
2017-Sep-19 22:00N 45°53' W 085°35'611.0
2017-Sep-19 21:30N 45°54' W 085°27'611.6
2017-Sep-19 21:00N 45°53' W 085°19'611.6
2017-Sep-19 20:30N 45°52' W 085°10'611.7
2017-Sep-19 20:00N 45°51' W 085°02'611.8
2017-Sep-19 19:30N 45°50' W 084°54'612.2
2017-Sep-19 19:00N 45°49' W 084°45'510.7
2017-Sep-19 18:30N 45°50' W 084°37'510.8
2017-Sep-19 18:00N 45°52' W 084°30'611.7
2017-Sep-19 17:30N 45°52' W 084°22'611.7
2017-Sep-19 17:00N 45°53' W 084°13'711.5
2017-Sep-19 16:26N 45°54' W 084°04'611.5
2017-Sep-19 15:56N 45°56' W 083°56'20 7.5
2017-Sep-19 13:15N 46°14' W 084°10'19 3.7
2017-Sep-19 08:08N 46°30' W 084°24'1 5.9
2017-Sep-19 08:00N 46°30' W 084°25'13 7.5
2017-Sep-19 06:14N 46°35' W 084°43'311.4
2017-Sep-19 06:00N 46°37' W 084°45'611.4
2017-Sep-19 05:30N 46°42' W 084°50'711.6
2017-Sep-19 04:54N 46°48' W 084°55'511.3
2017-Sep-19 04:30N 46°50' W 085°01'611.5
2017-Sep-19 03:57N 46°54' W 085°09'1311.7
2017-Sep-19 02:49N 46°59' W 085°26'412.0
2017-Sep-19 02:30N 46°60' W 085°32'611.8
2017-Sep-19 01:58N 47°02' W 085°40'611.9
2017-Sep-19 01:30N 47°04' W 085°48'2214.5
2017-Sep-19 00:00N 47°12' W 086°18'13010.9 130 / 31018.927.0 13.8
2017-Sep-18 12:00N 47°18' W 089°30'6210.4 150 / 81020.310.8 14.4 14.4
2017-Sep-18 06:00N 47°06' W 091°00'2212.8 330 / 31020.910.8 13.3
2017-Sep-18 04:15N 46°56' W 091°30'311.3
2017-Sep-18 04:00N 46°55' W 091°33'611.4
2017-Sep-18 03:30N 46°52' W 091°40'611.3
2017-Sep-18 03:00N 46°50' W 091°48'611.4
2017-Sep-18 02:30N 46°49' W 091°56'510.6
2017-Sep-18 02:00N 46°47' W 092°04'2 4.3
2017-Sep-18 01:30N 46°46' W 092°06'1 2.5
2017-Sep-18 01:00N 46°45' W 092°07'1 2.0
2017-Sep-18 00:30N 46°45' W 092°08'0 0.0
2017-Sep-18 00:00N 46°45' W 092°08'0 0.0
2017-Sep-17 23:30N 46°45' W 092°08'0 0.0
2017-Sep-17 23:00N 46°45' W 092°08'0 0.0
2017-Sep-17 22:30N 46°45' W 092°08'0 0.0
2017-Sep-17 22:00N 46°45' W 092°08'0 0.0
2017-Sep-17 21:30N 46°45' W 092°08'0 0.0
2017-Sep-17 21:00N 46°45' W 092°08'0 0.0
2017-Sep-17 20:31N 46°45' W 092°08'0 0.0
2017-Sep-17 20:00N 46°45' W 092°08'0 0.0
2017-Sep-17 19:30N 46°45' W 092°08'0 0.0
2017-Sep-17 19:00N 46°45' W 092°08'0 0.0
2017-Sep-17 18:30N 46°45' W 092°08'0 0.0
2017-Sep-17 18:00N 46°45' W 092°08'0 0.0
2017-Sep-17 17:30N 46°45' W 092°08'0 0.0
2017-Sep-17 17:00N 46°45' W 092°08'0 0.0
2017-Sep-17 16:30N 46°45' W 092°08'0 0.0
2017-Sep-17 16:00N 46°45' W 092°08'0 0.0
2017-Sep-17 15:30N 46°45' W 092°08'0 0.0
2017-Sep-17 15:00N 46°45' W 092°08'0 0.0
2017-Sep-17 14:30N 46°45' W 092°08'0 0.0
2017-Sep-17 14:00N 46°45' W 092°08'0 0.0
2017-Sep-17 13:30N 46°45' W 092°08'0 0.0
2017-Sep-17 13:00N 46°45' W 092°08'0 0.0
2017-Sep-17 12:30N 46°45' W 092°08'0 0.0
2017-Sep-17 12:00N 46°45' W 092°08'0 0.8
2017-Sep-17 11:30N 46°45' W 092°08'1 1.0
2017-Sep-17 11:00N 46°45' W 092°07'1 2.1
2017-Sep-17 10:30N 46°45' W 092°06'2 3.8
2017-Sep-17 10:00N 46°47' W 092°05'3 6.1
2017-Sep-17 09:30N 46°48' W 092°01'4 7.4
2017-Sep-17 09:00N 46°50' W 091°56'3 6.4
2017-Sep-17 08:30N 46°51' W 091°51'3 5.8
2017-Sep-17 08:00N 46°52' W 091°48'3 5.8
2017-Sep-17 07:30N 46°53' W 091°44'3 5.4
2017-Sep-17 07:00N 46°54' W 091°40'3 5.5
2017-Sep-17 06:30N 46°55' W 091°36'3 5.5
2017-Sep-17 06:00N 46°56' W 091°33'49 8.2
2017-Sep-17 00:00N 47°12' W 090°24'50 7.2 100 / 101011.5 5.4 18.3
2017-Sep-16 17:00N 47°24' W 089°12'5310.6 240 / 91011.810.8 14.9
2017-Sep-16 12:00N 47°30' W 087°54'7311.5 190 / 221011.510.8 18.3
2017-Sep-16 05:35N 47°07' W 086°11'912.7
2017-Sep-16 04:52N 47°04' W 085°59'512.8
2017-Sep-16 04:27N 47°02' W 085°51'1012.8
2017-Sep-16 03:39N 46°58' W 085°37'312.9
2017-Sep-16 03:25N 46°57' W 085°33'73 6.2
2017-Sep-15 15:40N 46°15' W 084°06'1 7.4
2017-Sep-15 15:30N 46°14' W 084°07'12 9.6
2017-Sep-15 14:17N 46°04' W 083°59'311.7
2017-Sep-15 13:59N 46°02' W 083°54'510.4
2017-Sep-15 13:30N 45°57' W 083°54'612.0
2017-Sep-15 13:00N 45°54' W 084°01'612.8
2017-Sep-15 12:30N 45°51' W 084°09'612.7
2017-Sep-15 12:00N 45°51' W 084°18'51127.7
2017-Sep-15 12:00N 45°48' W 084°24'3 6.8 190 / 101015.210.8 16.6 18.8
2017-Sep-15 11:29N 45°51' W 084°27'612.7
2017-Sep-15 11:00N 45°51' W 084°36'612.0
2017-Sep-15 10:30N 45°49' W 084°44'612.9
2017-Sep-15 10:00N 45°49' W 084°53'612.8
2017-Sep-15 09:30N 45°50' W 085°03'5 9.7
2017-Sep-15 09:00N 45°47' W 085°09'611.1
2017-Sep-15 08:30N 45°43' W 085°12'612.8
2017-Sep-15 08:00N 45°37' W 085°18'612.8
2017-Sep-15 07:30N 45°32' W 085°23'612.7
2017-Sep-15 07:00N 45°27' W 085°29'612.6
2017-Sep-15 06:30N 45°22' W 085°34'612.6
2017-Sep-15 06:00N 45°17' W 085°39'612.5
2017-Sep-15 05:30N 45°12' W 085°45'812.4
2017-Sep-15 04:52N 45°06' W 085°51'612.3
2017-Sep-15 04:21N 45°00' W 085°57'5913.5
2017-Sep-15 00:00N 44°18' W 086°54'2353196.1 170 / 181012.510.8 22.7 21.1
2017-Sep-14 12:00N 56°54' W 028°24'2473103.1 220 / 51011.8 5.4 16.6 22.2
2017-Sep-13 12:00N 41°54' W 087°24'13611.3 090 / 91009.410.8 18.3 19.4
2017-Sep-13 00:00N 44°06' W 086°42'4111.7 320
2017-Sep-12 20:31N 44°45' W 086°29'311.8
2017-Sep-12 20:18N 44°48' W 086°28'511.7
2017-Sep-12 19:51N 44°53' W 086°26'411.7
2017-Sep-12 19:30N 44°57' W 086°24'611.6
2017-Sep-12 19:00N 45°02' W 086°22'711.6
2017-Sep-12 18:26N 45°09' W 086°20'511.7
2017-Sep-12 18:00N 45°14' W 086°18'611.7
2017-Sep-12 17:30N 45°19' W 086°15'611.6
2017-Sep-12 17:00N 45°25' W 086°13'611.7
2017-Sep-12 16:30N 45°30' W 086°11'611.7
2017-Sep-12 16:00N 45°36' W 086°08'611.0
2017-Sep-12 15:30N 45°41' W 086°06'611.6
2017-Sep-12 15:00N 45°44' W 085°59'611.5
2017-Sep-12 14:30N 45°47' W 085°51'611.2
2017-Sep-12 14:00N 45°50' W 085°44'611.3
2017-Sep-12 13:30N 45°52' W 085°37'510.7
2017-Sep-12 13:00N 45°54' W 085°30'611.1
2017-Sep-12 12:28N 45°53' W 085°21'511.2
2017-Sep-12 12:00N 45°52' W 085°14'7547.1
2017-Sep-12 12:00N 45°48' W 085°06'4 7.5 240 / 111017.610.8 18.3 15.5
2017-Sep-12 11:30N 45°52' W 085°06'611.2
2017-Sep-12 11:00N 45°51' W 084°58'510.9
2017-Sep-12 10:30N 45°50' W 084°50'510.6
2017-Sep-12 10:00N 45°49' W 084°43'7 9.8
2017-Sep-12 09:21N 45°51' W 084°34'411.1
2017-Sep-12 09:00N 45°52' W 084°29'1311.2
2017-Sep-12 07:50N 45°53' W 084°10'411.1
2017-Sep-12 07:30N 45°54' W 084°05'611.3
2017-Sep-12 06:58N 45°56' W 083°56'4 8.1
2017-Sep-12 06:30N 45°59' W 083°53'8 9.1
2017-Sep-12 05:39N 46°05' W 084°01'1 9.1
2017-Sep-12 05:30N 46°06' W 084°01'4 8.2
2017-Sep-12 05:00N 46°10' W 084°04'135 8.0
2017-Sep-11 12:00N 47°18' W 086°54'13411.2 180 / 161021.610.8 13.8 11.1
2017-Sep-11 00:00N 47°18' W 090°12'   100 / 101022.010.8 18.3 11.1
Track history (hours):
 
Tides and Currents Weather Stations Pressure Air Temp Water Temp Dewpoint Dewpoint Depression Visibility Wind Speed Wind Dir Waves Ship Positions

American Spirit

Owner: AMERICAN STEAMSHIP COMPANY, WILLIAMSVILLE, NY. More information available from US FCC via Universal Licensing System and Coast Guard Vessel Documentation Center.

Last reported at 2017-Sep-20 12:00 UTC. Time now 2017-Sep-21 15:48 UTC.
Position N 43°30' W 086°54'.

Length 302 m; draft 8.6 m.

Type: Cargo ship. MMSI: 366930730.

Wind from 130 at 16 knots

Barometer 1014.2 mb
Air temperature 17.2 ° C
Visibility: greater than 5.4 NM

Date/timePositionNaut miles runAvg speedWind from/ knotsBaromVisibWave heightAir tempDewpointWater temp
2017-Sep-20 12:00N 43°30' W 086°54'6212.5 130 / 161014.2 5.4 17.2
2017-Sep-20 07:00N 44°30' W 086°30'4110.2 150 / 201014.210.8 18.3
2017-Sep-20 02:58N 45°10' W 086°19'511.5
2017-Sep-20 02:30N 45°15' W 086°17'611.6
2017-Sep-20 02:00N 45°21' W 086°15'611.6
2017-Sep-20 01:30N 45°26' W 086°12'611.7
2017-Sep-20 01:00N 45°32' W 086°10'611.6
2017-Sep-20 00:30N 45°38' W 086°08'510.6
2017-Sep-20 00:00N 45°42' W 086°04'7447.0
2017-Sep-20 00:00N 45°42' W 085°54'3 6.9 080 / 101015.927.0 17.7
2017-Sep-19 23:30N 45°45' W 085°56'611.7
2017-Sep-19 23:00N 45°48' W 085°49'611.4
2017-Sep-19 22:30N 45°51' W 085°42'611.3
2017-Sep-19 22:00N 45°53' W 085°35'611.0
2017-Sep-19 21:30N 45°54' W 085°27'611.6
2017-Sep-19 21:00N 45°53' W 085°19'611.6
2017-Sep-19 20:30N 45°52' W 085°10'611.7
2017-Sep-19 20:00N 45°51' W 085°02'611.8
2017-Sep-19 19:30N 45°50' W 084°54'612.2
2017-Sep-19 19:00N 45°49' W 084°45'510.7
2017-Sep-19 18:30N 45°50' W 084°37'510.8
2017-Sep-19 18:00N 45°52' W 084°30'611.7
2017-Sep-19 17:30N 45°52' W 084°22'611.7
2017-Sep-19 17:00N 45°53' W 084°13'711.5
2017-Sep-19 16:26N 45°54' W 084°04'611.5
2017-Sep-19 15:56N 45°56' W 083°56'20 7.5
2017-Sep-19 13:15N 46°14' W 084°10'19 3.7
2017-Sep-19 08:08N 46°30' W 084°24'1 5.9
2017-Sep-19 08:00N 46°30' W 084°25'13 7.5
2017-Sep-19 06:14N 46°35' W 084°43'311.4
2017-Sep-19 06:00N 46°37' W 084°45'611.4
2017-Sep-19 05:30N 46°42' W 084°50'711.6
2017-Sep-19 04:54N 46°48' W 084°55'511.3
2017-Sep-19 04:30N 46°50' W 085°01'611.5
2017-Sep-19 03:57N 46°54' W 085°09'1311.7
2017-Sep-19 02:49N 46°59' W 085°26'412.0
2017-Sep-19 02:30N 46°60' W 085°32'611.8
2017-Sep-19 01:58N 47°02' W 085°40'611.9
2017-Sep-19 01:30N 47°04' W 085°48'2214.5
2017-Sep-19 00:00N 47°12' W 086°18'13010.9 130 / 31018.927.0 13.8
2017-Sep-18 12:00N 47°18' W 089°30'6210.4 150 / 81020.310.8 14.4 14.4
2017-Sep-18 06:00N 47°06' W 091°00'2212.8 330 / 31020.910.8 13.3
2017-Sep-18 04:15N 46°56' W 091°30'311.3
2017-Sep-18 04:00N 46°55' W 091°33'611.4
2017-Sep-18 03:30N 46°52' W 091°40'611.3
2017-Sep-18 03:00N 46°50' W 091°48'611.4
2017-Sep-18 02:30N 46°49' W 091°56'510.6
2017-Sep-18 02:00N 46°47' W 092°04'2 4.3
2017-Sep-18 01:30N 46°46' W 092°06'1 2.5
2017-Sep-18 01:00N 46°45' W 092°07'1 2.0
2017-Sep-18 00:30N 46°45' W 092°08'0 0.0
2017-Sep-18 00:00N 46°45' W 092°08'0 0.0
2017-Sep-17 23:30N 46°45' W 092°08'0 0.0
2017-Sep-17 23:00N 46°45' W 092°08'0 0.0
2017-Sep-17 22:30N 46°45' W 092°08'0 0.0
2017-Sep-17 22:00N 46°45' W 092°08'0 0.0
2017-Sep-17 21:30N 46°45' W 092°08'0 0.0
2017-Sep-17 21:00N 46°45' W 092°08'0 0.0
2017-Sep-17 20:31N 46°45' W 092°08'0 0.0
2017-Sep-17 20:00N 46°45' W 092°08'0 0.0
2017-Sep-17 19:30N 46°45' W 092°08'0 0.0
2017-Sep-17 19:00N 46°45' W 092°08'0 0.0
2017-Sep-17 18:30N 46°45' W 092°08'0 0.0
2017-Sep-17 18:00N 46°45' W 092°08'0 0.0
2017-Sep-17 17:30N 46°45' W 092°08'0 0.0
2017-Sep-17 17:00N 46°45' W 092°08'0 0.0
2017-Sep-17 16:30N 46°45' W 092°08'0 0.0
2017-Sep-17 16:00N 46°45' W 092°08'0 0.0
2017-Sep-17 15:30N 46°45' W 092°08'0 0.0
2017-Sep-17 15:00N 46°45' W 092°08'0 0.0
2017-Sep-17 14:30N 46°45' W 092°08'0 0.0
2017-Sep-17 14:00N 46°45' W 092°08'0 0.0
2017-Sep-17 13:30N 46°45' W 092°08'0 0.0
2017-Sep-17 13:00N 46°45' W 092°08'0 0.0
2017-Sep-17 12:30N 46°45' W 092°08'0 0.0
2017-Sep-17 12:00N 46°45' W 092°08'0 0.8
2017-Sep-17 11:30N 46°45' W 092°08'1 1.0
2017-Sep-17 11:00N 46°45' W 092°07'1 2.1
2017-Sep-17 10:30N 46°45' W 092°06'2 3.8
2017-Sep-17 10:00N 46°47' W 092°05'3 6.1
2017-Sep-17 09:30N 46°48' W 092°01'4 7.4
2017-Sep-17 09:00N 46°50' W 091°56'3 6.4
2017-Sep-17 08:30N 46°51' W 091°51'3 5.8
2017-Sep-17 08:00N 46°52' W 091°48'3 5.8
2017-Sep-17 07:30N 46°53' W 091°44'3 5.4
2017-Sep-17 07:00N 46°54' W 091°40'3 5.5
2017-Sep-17 06:30N 46°55' W 091°36'3 5.5
2017-Sep-17 06:00N 46°56' W 091°33'49 8.2
2017-Sep-17 00:00N 47°12' W 090°24'50 7.2 100 / 101011.5 5.4 18.3
2017-Sep-16 17:00N 47°24' W 089°12'5310.6 240 / 91011.810.8 14.9
2017-Sep-16 12:00N 47°30' W 087°54'7311.5 190 / 221011.510.8 18.3
2017-Sep-16 05:35N 47°07' W 086°11'912.7
2017-Sep-16 04:52N 47°04' W 085°59'512.8
2017-Sep-16 04:27N 47°02' W 085°51'1012.8
2017-Sep-16 03:39N 46°58' W 085°37'312.9
2017-Sep-16 03:25N 46°57' W 085°33'73 6.2
2017-Sep-15 15:40N 46°15' W 084°06'1 7.4
2017-Sep-15 15:30N 46°14' W 084°07'12 9.6
2017-Sep-15 14:17N 46°04' W 083°59'311.7
2017-Sep-15 13:59N 46°02' W 083°54'510.4
2017-Sep-15 13:30N 45°57' W 083°54'612.0
2017-Sep-15 13:00N 45°54' W 084°01'612.8
2017-Sep-15 12:30N 45°51' W 084°09'612.7
2017-Sep-15 12:00N 45°51' W 084°18'51127.7
2017-Sep-15 12:00N 45°48' W 084°24'3 6.8 190 / 101015.210.8 16.6 18.8
2017-Sep-15 11:29N 45°51' W 084°27'612.7
2017-Sep-15 11:00N 45°51' W 084°36'612.0
2017-Sep-15 10:30N 45°49' W 084°44'612.9
2017-Sep-15 10:00N 45°49' W 084°53'612.8
2017-Sep-15 09:30N 45°50' W 085°03'5 9.7
2017-Sep-15 09:00N 45°47' W 085°09'611.1
2017-Sep-15 08:30N 45°43' W 085°12'612.8
2017-Sep-15 08:00N 45°37' W 085°18'612.8
2017-Sep-15 07:30N 45°32' W 085°23'612.7
2017-Sep-15 07:00N 45°27' W 085°29'612.6
2017-Sep-15 06:30N 45°22' W 085°34'612.6
2017-Sep-15 06:00N 45°17' W 085°39'612.5
2017-Sep-15 05:30N 45°12' W 085°45'812.4
2017-Sep-15 04:52N 45°06' W 085°51'612.3
2017-Sep-15 04:21N 45°00' W 085°57'5913.5
2017-Sep-15 00:00N 44°18' W 086°54'2353196.1 170 / 181012.510.8 22.7 21.1
2017-Sep-14 12:00N 56°54' W 028°24'2473103.1 220 / 51011.8 5.4 16.6 22.2
2017-Sep-13 12:00N 41°54' W 087°24'13611.3 090 / 91009.410.8 18.3 19.4
2017-Sep-13 00:00N 44°06' W 086°42'4111.7 320
2017-Sep-12 20:31N 44°45' W 086°29'311.8
2017-Sep-12 20:18N 44°48' W 086°28'511.7
2017-Sep-12 19:51N 44°53' W 086°26'411.7
2017-Sep-12 19:30N 44°57' W 086°24'611.6
2017-Sep-12 19:00N 45°02' W 086°22'711.6
2017-Sep-12 18:26N 45°09' W 086°20'511.7
2017-Sep-12 18:00N 45°14' W 086°18'611.7
2017-Sep-12 17:30N 45°19' W 086°15'611.6
2017-Sep-12 17:00N 45°25' W 086°13'611.7
2017-Sep-12 16:30N 45°30' W 086°11'611.7
2017-Sep-12 16:00N 45°36' W 086°08'611.0
2017-Sep-12 15:30N 45°41' W 086°06'611.6
2017-Sep-12 15:00N 45°44' W 085°59'611.5
2017-Sep-12 14:30N 45°47' W 085°51'611.2
2017-Sep-12 14:00N 45°50' W 085°44'611.3
2017-Sep-12 13:30N 45°52' W 085°37'510.7
2017-Sep-12 13:00N 45°54' W 085°30'611.1
2017-Sep-12 12:28N 45°53' W 085°21'511.2
2017-Sep-12 12:00N 45°52' W 085°14'7547.1
2017-Sep-12 12:00N 45°48' W 085°06'4 7.5 240 / 111017.610.8 18.3 15.5
2017-Sep-12 11:30N 45°52' W 085°06'611.2
2017-Sep-12 11:00N 45°51' W 084°58'510.9
2017-Sep-12 10:30N 45°50' W 084°50'510.6
2017-Sep-12 10:00N 45°49' W 084°43'7 9.8
2017-Sep-12 09:21N 45°51' W 084°34'411.1
2017-Sep-12 09:00N 45°52' W 084°29'1311.2
2017-Sep-12 07:50N 45°53' W 084°10'411.1
2017-Sep-12 07:30N 45°54' W 084°05'611.3
2017-Sep-12 06:58N 45°56' W 083°56'4 8.1
2017-Sep-12 06:30N 45°59' W 083°53'8 9.1
2017-Sep-12 05:39N 46°05' W 084°01'1 9.1
2017-Sep-12 05:30N 46°06' W 084°01'4 8.2
2017-Sep-12 05:00N 46°10' W 084°04'135 8.0
2017-Sep-11 12:00N 47°18' W 086°54'13411.2 180 / 161021.610.8 13.8 11.1
2017-Sep-11 00:00N 47°18' W 090°12'   100 / 101022.010.8 18.3 11.1

Dump ship's entire track history